sensor_id;sensor_type;location;lat;lon;timestamp;P1;durP1;ratioP1;P2;durP2;ratioP2
11267;SDS011;49397;47.474;9.416;2023-05-07T00:01:37;3.63;;;3.17;;
11267;SDS011;49397;47.474;9.416;2023-05-07T00:04:02;3.10;;;2.87;;
11267;SDS011;49397;47.474;9.416;2023-05-07T00:06:28;3.40;;;3.03;;
11267;SDS011;49397;47.474;9.416;2023-05-07T00:08:54;2.97;;;2.67;;
11267;SDS011;49397;47.474;9.416;2023-05-07T00:11:19;5.60;;;2.77;;
11267;SDS011;49397;47.474;9.416;2023-05-07T00:13:44;5.23;;;3.13;;
11267;SDS011;49397;47.474;9.416;2023-05-07T00:16:10;3.53;;;2.80;;
11267;SDS011;49397;47.474;9.416;2023-05-07T00:18:35;2.73;;;2.53;;
11267;SDS011;49397;47.474;9.416;2023-05-07T00:21:01;3.20;;;2.97;;
11267;SDS011;49397;47.474;9.416;2023-05-07T00:23:26;6.50;;;2.63;;
11267;SDS011;49397;47.474;9.416;2023-05-07T00:25:51;3.20;;;2.90;;
11267;SDS011;49397;47.474;9.416;2023-05-07T00:28:17;3.87;;;3.10;;
11267;SDS011;49397;47.474;9.416;2023-05-07T00:30:42;3.43;;;3.13;;
11267;SDS011;49397;47.474;9.416;2023-05-07T00:33:07;3.27;;;2.70;;
11267;SDS011;49397;47.474;9.416;2023-05-07T00:35:33;3.50;;;3.20;;
11267;SDS011;49397;47.474;9.416;2023-05-07T00:37:58;3.17;;;2.90;;
11267;SDS011;49397;47.474;9.416;2023-05-07T00:40:23;4.30;;;3.30;;
11267;SDS011;49397;47.474;9.416;2023-05-07T00:42:49;3.40;;;3.20;;
11267;SDS011;49397;47.474;9.416;2023-05-07T00:45:15;3.30;;;3.10;;
11267;SDS011;49397;47.474;9.416;2023-05-07T00:47:40;3.37;;;3.07;;
11267;SDS011;49397;47.474;9.416;2023-05-07T00:50:06;3.30;;;3.10;;
11267;SDS011;49397;47.474;9.416;2023-05-07T00:52:32;4.27;;;3.20;;
11267;SDS011;49397;47.474;9.416;2023-05-07T00:54:59;3.57;;;3.27;;
11267;SDS011;49397;47.474;9.416;2023-05-07T00:57:26;2.93;;;2.73;;
11267;SDS011;49397;47.474;9.416;2023-05-07T00:59:52;3.43;;;3.13;;
11267;SDS011;49397;47.474;9.416;2023-05-07T01:02:17;3.13;;;2.93;;
11267;SDS011;49397;47.474;9.416;2023-05-07T01:04:42;3.93;;;3.53;;
11267;SDS011;49397;47.474;9.416;2023-05-07T01:07:08;2.97;;;2.77;;
11267;SDS011;49397;47.474;9.416;2023-05-07T01:09:33;3.53;;;3.23;;
11267;SDS011;49397;47.474;9.416;2023-05-07T01:12:00;4.10;;;3.33;;
11267;SDS011;49397;47.474;9.416;2023-05-07T01:14:25;4.00;;;3.60;;
11267;SDS011;49397;47.474;9.416;2023-05-07T01:16:51;2.97;;;2.77;;
11267;SDS011;49397;47.474;9.416;2023-05-07T01:19:17;3.20;;;2.87;;
11267;SDS011;49397;47.474;9.416;2023-05-07T01:21:47;3.33;;;3.03;;
11267;SDS011;49397;47.474;9.416;2023-05-07T01:24:13;6.00;;;3.57;;
11267;SDS011;49397;47.474;9.416;2023-05-07T01:26:40;2.90;;;2.70;;
11267;SDS011;49397;47.474;9.416;2023-05-07T01:29:05;4.43;;;2.80;;
11267;SDS011;49397;47.474;9.416;2023-05-07T01:31:31;3.37;;;2.97;;
11267;SDS011;49397;47.474;9.416;2023-05-07T01:33:57;4.30;;;3.20;;
11267;SDS011;49397;47.474;9.416;2023-05-07T01:36:24;5.17;;;3.33;;
11267;SDS011;49397;47.474;9.416;2023-05-07T01:38:52;4.87;;;3.17;;
11267;SDS011;49397;47.474;9.416;2023-05-07T01:41:18;3.10;;;2.90;;
11267;SDS011;49397;47.474;9.416;2023-05-07T01:43:43;3.23;;;2.97;;
11267;SDS011;49397;47.474;9.416;2023-05-07T01:46:09;3.47;;;3.17;;
11267;SDS011;49397;47.474;9.416;2023-05-07T01:48:35;3.57;;;2.93;;
11267;SDS011;49397;47.474;9.416;2023-05-07T01:51:01;3.50;;;2.70;;
11267;SDS011;49397;47.474;9.416;2023-05-07T01:53:27;4.23;;;2.80;;
11267;SDS011;49397;47.474;9.416;2023-05-07T01:55:53;2.77;;;2.50;;
11267;SDS011;49397;47.474;9.416;2023-05-07T01:58:18;3.80;;;3.00;;
11267;SDS011;49397;47.474;9.416;2023-05-07T02:00:44;4.47;;;3.30;;
11267;SDS011;49397;47.474;9.416;2023-05-07T02:03:09;4.73;;;3.30;;
11267;SDS011;49397;47.474;9.416;2023-05-07T02:05:34;2.93;;;2.73;;
11267;SDS011;49397;47.474;9.416;2023-05-07T02:08:00;3.00;;;2.70;;
11267;SDS011;49397;47.474;9.416;2023-05-07T02:10:25;2.83;;;2.60;;
11267;SDS011;49397;47.474;9.416;2023-05-07T02:12:50;5.70;;;2.80;;
11267;SDS011;49397;47.474;9.416;2023-05-07T02:15:16;2.83;;;2.53;;
11267;SDS011;49397;47.474;9.416;2023-05-07T02:18:01;3.37;;;3.07;;
11267;SDS011;49397;47.474;9.416;2023-05-07T02:20:26;4.17;;;3.77;;
11267;SDS011;49397;47.474;9.416;2023-05-07T02:22:52;3.37;;;3.07;;
11267;SDS011;49397;47.474;9.416;2023-05-07T02:25:17;3.90;;;3.60;;
11267;SDS011;49397;47.474;9.416;2023-05-07T02:27:43;3.63;;;3.33;;
11267;SDS011;49397;47.474;9.416;2023-05-07T02:30:08;9.83;;;3.93;;
11267;SDS011;49397;47.474;9.416;2023-05-07T02:32:34;4.07;;;2.90;;
11267;SDS011;49397;47.474;9.416;2023-05-07T02:34:59;3.47;;;2.80;;
11267;SDS011;49397;47.474;9.416;2023-05-07T02:37:24;6.97;;;3.20;;
11267;SDS011;49397;47.474;9.416;2023-05-07T02:39:50;3.40;;;3.20;;
11267;SDS011;49397;47.474;9.416;2023-05-07T02:42:15;4.90;;;3.10;;
11267;SDS011;49397;47.474;9.416;2023-05-07T02:44:40;3.50;;;3.20;;
11267;SDS011;49397;47.474;9.416;2023-05-07T02:47:06;3.83;;;3.40;;
11267;SDS011;49397;47.474;9.416;2023-05-07T02:49:33;3.63;;;3.33;;
11267;SDS011;49397;47.474;9.416;2023-05-07T02:51:59;4.33;;;3.23;;
11267;SDS011;49397;47.474;9.416;2023-05-07T02:54:24;3.60;;;3.40;;
11267;SDS011;49397;47.474;9.416;2023-05-07T02:56:49;4.53;;;3.53;;
11267;SDS011;49397;47.474;9.416;2023-05-07T02:59:15;5.73;;;3.27;;
11267;SDS011;49397;47.474;9.416;2023-05-07T03:01:40;3.13;;;2.93;;
11267;SDS011;49397;47.474;9.416;2023-05-07T03:04:06;3.17;;;2.87;;
11267;SDS011;49397;47.474;9.416;2023-05-07T03:06:32;4.27;;;3.10;;
11267;SDS011;49397;47.474;9.416;2023-05-07T03:08:57;3.27;;;3.03;;
11267;SDS011;49397;47.474;9.416;2023-05-07T03:11:22;3.20;;;2.90;;
11267;SDS011;49397;47.474;9.416;2023-05-07T03:13:48;3.50;;;3.20;;
11267;SDS011;49397;47.474;9.416;2023-05-07T03:16:15;3.70;;;3.40;;
11267;SDS011;49397;47.474;9.416;2023-05-07T03:18:40;8.00;;;2.97;;
11267;SDS011;49397;47.474;9.416;2023-05-07T03:21:05;4.00;;;3.27;;
11267;SDS011;49397;47.474;9.416;2023-05-07T03:23:31;3.40;;;3.20;;
11267;SDS011;49397;47.474;9.416;2023-05-07T03:25:56;3.90;;;3.50;;
11267;SDS011;49397;47.474;9.416;2023-05-07T03:28:21;3.67;;;3.13;;
11267;SDS011;49397;47.474;9.416;2023-05-07T03:30:47;3.17;;;2.97;;
11267;SDS011;49397;47.474;9.416;2023-05-07T03:33:12;3.17;;;2.90;;
11267;SDS011;49397;47.474;9.416;2023-05-07T03:35:38;3.57;;;3.30;;
11267;SDS011;49397;47.474;9.416;2023-05-07T03:38:03;3.37;;;3.07;;
11267;SDS011;49397;47.474;9.416;2023-05-07T03:40:28;7.07;;;3.33;;
11267;SDS011;49397;47.474;9.416;2023-05-07T03:42:54;4.97;;;3.20;;
11267;SDS011;49397;47.474;9.416;2023-05-07T03:45:19;3.43;;;3.13;;
11267;SDS011;49397;47.474;9.416;2023-05-07T03:47:44;3.90;;;3.23;;
11267;SDS011;49397;47.474;9.416;2023-05-07T03:50:10;3.77;;;3.47;;
11267;SDS011;49397;47.474;9.416;2023-05-07T03:52:35;3.53;;;3.20;;
11267;SDS011;49397;47.474;9.416;2023-05-07T03:55:01;2.93;;;2.63;;
11267;SDS011;49397;47.474;9.416;2023-05-07T03:57:26;4.07;;;3.77;;
11267;SDS011;49397;47.474;9.416;2023-05-07T03:59:51;6.10;;;3.30;;
11267;SDS011;49397;47.474;9.416;2023-05-07T04:02:16;6.70;;;3.57;;
11267;SDS011;49397;47.474;9.416;2023-05-07T04:04:42;5.57;;;3.53;;
11267;SDS011;49397;47.474;9.416;2023-05-07T04:07:07;4.40;;;3.30;;
11267;SDS011;49397;47.474;9.416;2023-05-07T04:09:33;3.80;;;3.50;;
11267;SDS011;49397;47.474;9.416;2023-05-07T04:11:58;5.03;;;2.90;;
11267;SDS011;49397;47.474;9.416;2023-05-07T04:14:23;2.67;;;2.47;;
11267;SDS011;49397;47.474;9.416;2023-05-07T04:16:48;3.57;;;3.27;;
11267;SDS011;49397;47.474;9.416;2023-05-07T04:19:14;3.57;;;3.27;;
11267;SDS011;49397;47.474;9.416;2023-05-07T04:21:39;3.90;;;3.53;;
11267;SDS011;49397;47.474;9.416;2023-05-07T04:24:05;3.80;;;3.50;;
11267;SDS011;49397;47.474;9.416;2023-05-07T04:26:30;3.37;;;3.07;;
11267;SDS011;49397;47.474;9.416;2023-05-07T04:28:56;5.47;;;3.17;;
11267;SDS011;49397;47.474;9.416;2023-05-07T04:31:24;3.80;;;3.40;;
11267;SDS011;49397;47.474;9.416;2023-05-07T04:33:50;4.43;;;2.90;;
11267;SDS011;49397;47.474;9.416;2023-05-07T04:36:16;3.43;;;3.23;;
11267;SDS011;49397;47.474;9.416;2023-05-07T04:38:42;5.50;;;3.30;;
11267;SDS011;49397;47.474;9.416;2023-05-07T04:41:08;3.60;;;3.30;;
11267;SDS011;49397;47.474;9.416;2023-05-07T04:43:34;6.77;;;3.83;;
11267;SDS011;49397;47.474;9.416;2023-05-07T04:45:59;5.80;;;3.60;;
11267;SDS011;49397;47.474;9.416;2023-05-07T04:48:24;7.23;;;3.83;;
11267;SDS011;49397;47.474;9.416;2023-05-07T04:50:51;5.63;;;3.97;;
11267;SDS011;49397;47.474;9.416;2023-05-07T04:53:17;4.07;;;3.67;;
11267;SDS011;49397;47.474;9.416;2023-05-07T04:55:42;6.23;;;4.43;;
11267;SDS011;49397;47.474;9.416;2023-05-07T04:58:08;10.47;;;3.37;;
11267;SDS011;49397;47.474;9.416;2023-05-07T05:00:33;4.40;;;3.97;;
11267;SDS011;49397;47.474;9.416;2023-05-07T05:02:58;4.47;;;3.40;;
11267;SDS011;49397;47.474;9.416;2023-05-07T05:05:24;5.33;;;3.53;;
11267;SDS011;49397;47.474;9.416;2023-05-07T05:07:50;3.20;;;3.00;;
11267;SDS011;49397;47.474;9.416;2023-05-07T05:10:16;3.20;;;2.90;;
11267;SDS011;49397;47.474;9.416;2023-05-07T05:12:42;3.00;;;2.80;;
11267;SDS011;49397;47.474;9.416;2023-05-07T05:15:07;3.57;;;3.27;;
11267;SDS011;49397;47.474;9.416;2023-05-07T05:17:33;3.50;;;3.20;;
11267;SDS011;49397;47.474;9.416;2023-05-07T05:19:59;4.20;;;3.30;;
11267;SDS011;49397;47.474;9.416;2023-05-07T05:22:25;3.60;;;3.30;;
11267;SDS011;49397;47.474;9.416;2023-05-07T05:24:50;3.87;;;3.23;;
11267;SDS011;49397;47.474;9.416;2023-05-07T05:27:16;3.97;;;3.17;;
11267;SDS011;49397;47.474;9.416;2023-05-07T05:29:41;4.23;;;3.33;;
11267;SDS011;49397;47.474;9.416;2023-05-07T05:32:07;6.50;;;4.13;;
11267;SDS011;49397;47.474;9.416;2023-05-07T05:34:32;3.70;;;3.40;;
11267;SDS011;49397;47.474;9.416;2023-05-07T05:36:58;5.57;;;3.57;;
11267;SDS011;49397;47.474;9.416;2023-05-07T05:39:24;3.57;;;3.23;;
11267;SDS011;49397;47.474;9.416;2023-05-07T05:41:49;2.87;;;2.70;;
11267;SDS011;49397;47.474;9.416;2023-05-07T05:44:15;3.20;;;2.90;;
11267;SDS011;49397;47.474;9.416;2023-05-07T05:46:40;3.47;;;2.80;;
11267;SDS011;49397;47.474;9.416;2023-05-07T05:49:05;2.60;;;2.50;;
11267;SDS011;49397;47.474;9.416;2023-05-07T05:51:31;5.53;;;2.80;;
11267;SDS011;49397;47.474;9.416;2023-05-07T05:53:56;2.97;;;2.80;;
11267;SDS011;49397;47.474;9.416;2023-05-07T05:56:21;2.50;;;2.30;;
11267;SDS011;49397;47.474;9.416;2023-05-07T05:58:47;2.97;;;2.60;;
11267;SDS011;49397;47.474;9.416;2023-05-07T06:01:12;3.50;;;3.20;;
11267;SDS011;49397;47.474;9.416;2023-05-07T06:03:37;4.07;;;2.70;;
11267;SDS011;49397;47.474;9.416;2023-05-07T06:06:03;2.90;;;2.70;;
11267;SDS011;49397;47.474;9.416;2023-05-07T06:08:31;3.77;;;2.80;;
11267;SDS011;49397;47.474;9.416;2023-05-07T06:10:56;3.63;;;2.43;;
11267;SDS011;49397;47.474;9.416;2023-05-07T06:13:22;4.83;;;2.73;;
11267;SDS011;49397;47.474;9.416;2023-05-07T06:15:48;3.50;;;3.20;;
11267;SDS011;49397;47.474;9.416;2023-05-07T06:18:13;4.40;;;2.97;;
11267;SDS011;49397;47.474;9.416;2023-05-07T06:20:39;3.37;;;3.00;;
11267;SDS011;49397;47.474;9.416;2023-05-07T06:23:04;3.03;;;2.77;;
11267;SDS011;49397;47.474;9.416;2023-05-07T06:25:30;5.17;;;3.50;;
11267;SDS011;49397;47.474;9.416;2023-05-07T06:27:55;2.90;;;2.70;;
11267;SDS011;49397;47.474;9.416;2023-05-07T06:30:20;3.50;;;3.20;;
11267;SDS011;49397;47.474;9.416;2023-05-07T06:32:46;3.37;;;2.87;;
11267;SDS011;49397;47.474;9.416;2023-05-07T06:35:11;3.10;;;2.90;;
11267;SDS011;49397;47.474;9.416;2023-05-07T06:37:36;4.33;;;2.90;;
11267;SDS011;49397;47.474;9.416;2023-05-07T06:40:04;3.27;;;2.97;;
11267;SDS011;49397;47.474;9.416;2023-05-07T06:42:29;3.57;;;2.97;;
11267;SDS011;49397;47.474;9.416;2023-05-07T06:44:55;4.10;;;2.90;;
11267;SDS011;49397;47.474;9.416;2023-05-07T06:47:20;3.27;;;2.97;;
11267;SDS011;49397;47.474;9.416;2023-05-07T06:49:45;3.37;;;3.03;;
11267;SDS011;49397;47.474;9.416;2023-05-07T06:52:11;3.10;;;2.80;;
11267;SDS011;49397;47.474;9.416;2023-05-07T06:54:36;2.90;;;2.70;;
11267;SDS011;49397;47.474;9.416;2023-05-07T06:57:01;3.77;;;3.47;;
11267;SDS011;49397;47.474;9.416;2023-05-07T06:59:27;3.40;;;3.10;;
11267;SDS011;49397;47.474;9.416;2023-05-07T07:01:52;7.10;;;3.43;;
11267;SDS011;49397;47.474;9.416;2023-05-07T07:04:17;7.73;;;3.73;;
11267;SDS011;49397;47.474;9.416;2023-05-07T07:06:43;3.90;;;3.30;;
11267;SDS011;49397;47.474;9.416;2023-05-07T07:09:08;4.07;;;2.87;;
11267;SDS011;49397;47.474;9.416;2023-05-07T07:11:33;5.60;;;3.57;;
11267;SDS011;49397;47.474;9.416;2023-05-07T07:13:59;3.77;;;3.43;;
11267;SDS011;49397;47.474;9.416;2023-05-07T07:16:24;3.73;;;2.90;;
11267;SDS011;49397;47.474;9.416;2023-05-07T07:18:50;3.60;;;3.30;;
11267;SDS011;49397;47.474;9.416;2023-05-07T07:21:15;3.87;;;3.43;;
11267;SDS011;49397;47.474;9.416;2023-05-07T07:23:41;4.23;;;3.50;;
11267;SDS011;49397;47.474;9.416;2023-05-07T07:26:06;3.27;;;3.07;;
11267;SDS011;49397;47.474;9.416;2023-05-07T07:28:32;3.67;;;3.27;;
11267;SDS011;49397;47.474;9.416;2023-05-07T07:30:57;7.47;;;3.50;;
11267;SDS011;49397;47.474;9.416;2023-05-07T07:33:22;3.63;;;3.33;;
11267;SDS011;49397;47.474;9.416;2023-05-07T07:35:48;5.57;;;4.07;;
11267;SDS011;49397;47.474;9.416;2023-05-07T07:38:13;4.57;;;3.90;;
11267;SDS011;49397;47.474;9.416;2023-05-07T07:40:38;5.37;;;4.23;;
11267;SDS011;49397;47.474;9.416;2023-05-07T07:43:04;4.10;;;3.80;;
11267;SDS011;49397;47.474;9.416;2023-05-07T07:45:30;7.90;;;4.50;;
11267;SDS011;49397;47.474;9.416;2023-05-07T07:47:55;6.80;;;4.80;;
11267;SDS011;49397;47.474;9.416;2023-05-07T07:50:20;3.87;;;3.57;;
11267;SDS011;49397;47.474;9.416;2023-05-07T07:52:46;4.60;;;4.20;;
11267;SDS011;49397;47.474;9.416;2023-05-07T07:55:11;5.67;;;4.87;;
11267;SDS011;49397;47.474;9.416;2023-05-07T07:57:37;5.00;;;4.47;;
11267;SDS011;49397;47.474;9.416;2023-05-07T08:00:02;5.53;;;5.03;;
11267;SDS011;49397;47.474;9.416;2023-05-07T08:02:28;4.40;;;4.03;;
11267;SDS011;49397;47.474;9.416;2023-05-07T08:04:53;4.53;;;4.13;;
11267;SDS011;49397;47.474;9.416;2023-05-07T08:07:19;4.53;;;4.13;;
11267;SDS011;49397;47.474;9.416;2023-05-07T08:09:46;5.73;;;3.80;;
11267;SDS011;49397;47.474;9.416;2023-05-07T08:12:11;7.70;;;4.20;;
11267;SDS011;49397;47.474;9.416;2023-05-07T08:14:36;6.33;;;4.30;;
11267;SDS011;49397;47.474;9.416;2023-05-07T08:17:02;8.30;;;3.97;;
11267;SDS011;49397;47.474;9.416;2023-05-07T08:19:27;5.40;;;4.47;;
11267;SDS011;49397;47.474;9.416;2023-05-07T08:21:52;5.97;;;3.90;;
11267;SDS011;49397;47.474;9.416;2023-05-07T08:24:18;3.70;;;3.27;;
11267;SDS011;49397;47.474;9.416;2023-05-07T08:26:43;3.83;;;3.37;;
11267;SDS011;49397;47.474;9.416;2023-05-07T08:29:09;5.03;;;4.00;;
11267;SDS011;49397;47.474;9.416;2023-05-07T08:31:34;3.73;;;3.27;;
11267;SDS011;49397;47.474;9.416;2023-05-07T08:34:00;2.97;;;2.73;;
11267;SDS011;49397;47.474;9.416;2023-05-07T08:36:25;3.57;;;3.13;;
11267;SDS011;49397;47.474;9.416;2023-05-07T08:38:51;4.23;;;3.13;;
11267;SDS011;49397;47.474;9.416;2023-05-07T08:41:16;4.17;;;3.83;;
11267;SDS011;49397;47.474;9.416;2023-05-07T08:43:42;3.73;;;3.30;;
11267;SDS011;49397;47.474;9.416;2023-05-07T08:46:10;2.87;;;2.67;;
11267;SDS011;49397;47.474;9.416;2023-05-07T08:48:37;3.13;;;2.90;;
11267;SDS011;49397;47.474;9.416;2023-05-07T08:51:02;3.67;;;3.37;;
11267;SDS011;49397;47.474;9.416;2023-05-07T08:53:27;4.57;;;3.50;;
11267;SDS011;49397;47.474;9.416;2023-05-07T08:55:53;3.43;;;3.13;;
11267;SDS011;49397;47.474;9.416;2023-05-07T08:58:18;5.93;;;3.20;;
11267;SDS011;49397;47.474;9.416;2023-05-07T09:00:44;4.20;;;3.80;;
11267;SDS011;49397;47.474;9.416;2023-05-07T09:03:09;6.07;;;4.93;;
11267;SDS011;49397;47.474;9.416;2023-05-07T09:05:37;7.57;;;5.50;;
11267;SDS011;49397;47.474;9.416;2023-05-07T09:08:02;4.53;;;4.13;;
11267;SDS011;49397;47.474;9.416;2023-05-07T09:10:29;4.10;;;3.70;;
11267;SDS011;49397;47.474;9.416;2023-05-07T09:12:54;6.47;;;5.33;;
11267;SDS011;49397;47.474;9.416;2023-05-07T09:15:20;7.00;;;6.10;;
11267;SDS011;49397;47.474;9.416;2023-05-07T09:17:45;8.03;;;5.33;;
11267;SDS011;49397;47.474;9.416;2023-05-07T09:20:11;6.30;;;5.80;;
11267;SDS011;49397;47.474;9.416;2023-05-07T09:22:36;5.90;;;5.40;;
11267;SDS011;49397;47.474;9.416;2023-05-07T09:25:02;6.13;;;5.57;;
11267;SDS011;49397;47.474;9.416;2023-05-07T09:27:27;6.37;;;5.17;;
11267;SDS011;49397;47.474;9.416;2023-05-07T09:29:53;6.13;;;5.53;;
11267;SDS011;49397;47.474;9.416;2023-05-07T09:32:18;6.63;;;5.87;;
11267;SDS011;49397;47.474;9.416;2023-05-07T09:34:44;8.30;;;6.23;;
11267;SDS011;49397;47.474;9.416;2023-05-07T09:37:10;7.93;;;6.03;;
11267;SDS011;49397;47.474;9.416;2023-05-07T09:39:43;6.77;;;6.07;;
11267;SDS011;49397;47.474;9.416;2023-05-07T09:42:09;6.33;;;5.73;;
11267;SDS011;49397;47.474;9.416;2023-05-07T09:44:36;6.23;;;5.63;;
11267;SDS011;49397;47.474;9.416;2023-05-07T09:47:02;6.83;;;6.20;;
11267;SDS011;49397;47.474;9.416;2023-05-07T09:49:29;6.67;;;5.60;;
11267;SDS011;49397;47.474;9.416;2023-05-07T09:51:55;7.47;;;6.77;;
11267;SDS011;49397;47.474;9.416;2023-05-07T09:54:21;7.27;;;6.57;;
11267;SDS011;49397;47.474;9.416;2023-05-07T09:56:49;7.00;;;6.30;;
11267;SDS011;49397;47.474;9.416;2023-05-07T09:59:16;7.07;;;6.37;;
11267;SDS011;49397;47.474;9.416;2023-05-07T10:01:42;7.43;;;6.63;;
11267;SDS011;49397;47.474;9.416;2023-05-07T10:04:08;9.67;;;6.13;;
11267;SDS011;49397;47.474;9.416;2023-05-07T10:06:36;9.00;;;5.97;;
11267;SDS011;49397;47.474;9.416;2023-05-07T10:09:05;5.67;;;5.23;;
11267;SDS011;49397;47.474;9.416;2023-05-07T10:11:34;8.60;;;5.70;;
11267;SDS011;49397;47.474;9.416;2023-05-07T10:14:00;5.30;;;4.80;;
11267;SDS011;49397;47.474;9.416;2023-05-07T10:16:27;6.37;;;5.77;;
11267;SDS011;49397;47.474;9.416;2023-05-07T10:18:55;6.47;;;5.87;;
11267;SDS011;49397;47.474;9.416;2023-05-07T10:21:21;6.20;;;5.60;;
11267;SDS011;49397;47.474;9.416;2023-05-07T10:23:51;5.37;;;4.87;;
11267;SDS011;49397;47.474;9.416;2023-05-07T10:26:18;6.23;;;5.23;;
11267;SDS011;49397;47.474;9.416;2023-05-07T10:28:46;6.17;;;5.20;;
11267;SDS011;49397;47.474;9.416;2023-05-07T10:33:56;6.10;;;5.00;;
11267;SDS011;49397;47.474;9.416;2023-05-07T10:36:23;8.37;;;4.70;;
11267;SDS011;49397;47.474;9.416;2023-05-07T10:38:49;5.97;;;4.83;;
11267;SDS011;49397;47.474;9.416;2023-05-07T10:41:14;6.43;;;5.13;;
11267;SDS011;49397;47.474;9.416;2023-05-07T10:43:42;7.03;;;5.20;;
11267;SDS011;49397;47.474;9.416;2023-05-07T10:51:38;5.50;;;5.00;;
11267;SDS011;49397;47.474;9.416;2023-05-07T10:56:35;4.60;;;4.20;;
11267;SDS011;49397;47.474;9.416;2023-05-07T11:01:52;4.47;;;4.07;;
11267;SDS011;49397;47.474;9.416;2023-05-07T11:04:18;4.87;;;4.37;;
11267;SDS011;49397;47.474;9.416;2023-05-07T11:12:17;5.47;;;4.70;;
11267;SDS011;49397;47.474;9.416;2023-05-07T11:17:08;5.53;;;4.07;;
11267;SDS011;49397;47.474;9.416;2023-05-07T11:19:53;5.90;;;3.77;;
11267;SDS011;49397;47.474;9.416;2023-05-07T11:22:51;3.87;;;3.57;;
11267;SDS011;49397;47.474;9.416;2023-05-07T11:25:10;4.20;;;3.80;;
11267;SDS011;49397;47.474;9.416;2023-05-07T11:27:36;5.47;;;3.70;;
11267;SDS011;49397;47.474;9.416;2023-05-07T11:30:01;5.07;;;3.67;;
11267;SDS011;49397;47.474;9.416;2023-05-07T11:32:27;3.60;;;3.17;;
11267;SDS011;49397;47.474;9.416;2023-05-07T11:34:54;3.33;;;3.13;;
11267;SDS011;49397;47.474;9.416;2023-05-07T11:37:20;3.77;;;3.47;;
11267;SDS011;49397;47.474;9.416;2023-05-07T11:39:45;3.37;;;3.07;;
11267;SDS011;49397;47.474;9.416;2023-05-07T11:44:54;4.47;;;3.53;;
11267;SDS011;49397;47.474;9.416;2023-05-07T11:47:20;3.27;;;3.00;;
11267;SDS011;49397;47.474;9.416;2023-05-07T11:49:48;3.17;;;2.97;;
11267;SDS011;49397;47.474;9.416;2023-05-07T11:52:14;3.10;;;2.90;;
11267;SDS011;49397;47.474;9.416;2023-05-07T11:54:40;4.07;;;3.30;;
11267;SDS011;49397;47.474;9.416;2023-05-07T11:57:05;3.93;;;2.77;;
11267;SDS011;49397;47.474;9.416;2023-05-07T11:59:38;3.27;;;3.07;;
11267;SDS011;49397;47.474;9.416;2023-05-07T12:02:05;4.13;;;3.73;;
11267;SDS011;49397;47.474;9.416;2023-05-07T12:04:30;2.83;;;2.50;;
11267;SDS011;49397;47.474;9.416;2023-05-07T12:06:56;3.30;;;3.00;;
11267;SDS011;49397;47.474;9.416;2023-05-07T12:09:21;3.10;;;2.77;;
11267;SDS011;49397;47.474;9.416;2023-05-07T12:11:47;2.70;;;2.50;;
11267;SDS011;49397;47.474;9.416;2023-05-07T12:14:12;3.93;;;3.20;;
11267;SDS011;49397;47.474;9.416;2023-05-07T12:16:39;2.73;;;2.57;;
11267;SDS011;49397;47.474;9.416;2023-05-07T12:19:05;7.33;;;2.93;;
11267;SDS011;49397;47.474;9.416;2023-05-07T12:21:31;3.40;;;2.63;;
11267;SDS011;49397;47.474;9.416;2023-05-07T12:23:56;2.70;;;2.50;;
11267;SDS011;49397;47.474;9.416;2023-05-07T12:26:22;3.30;;;3.00;;
11267;SDS011;49397;47.474;9.416;2023-05-07T12:28:47;3.00;;;2.67;;
11267;SDS011;49397;47.474;9.416;2023-05-07T12:31:13;3.73;;;3.43;;
11267;SDS011;49397;47.474;9.416;2023-05-07T12:33:39;2.97;;;2.50;;
11267;SDS011;49397;47.474;9.416;2023-05-07T12:36:05;5.27;;;2.83;;
11267;SDS011;49397;47.474;9.416;2023-05-07T12:38:35;3.07;;;2.70;;
11267;SDS011;49397;47.474;9.416;2023-05-07T12:41:01;3.30;;;3.00;;
11267;SDS011;49397;47.474;9.416;2023-05-07T12:43:27;3.63;;;3.00;;
11267;SDS011;49397;47.474;9.416;2023-05-07T12:45:54;3.07;;;2.80;;
11267;SDS011;49397;47.474;9.416;2023-05-07T12:48:19;2.90;;;2.70;;
11267;SDS011;49397;47.474;9.416;2023-05-07T12:50:45;2.73;;;2.53;;
11267;SDS011;49397;47.474;9.416;2023-05-07T12:53:13;2.57;;;2.40;;
11267;SDS011;49397;47.474;9.416;2023-05-07T12:55:43;3.00;;;2.80;;
11267;SDS011;49397;47.474;9.416;2023-05-07T12:58:14;3.40;;;3.10;;
11267;SDS011;49397;47.474;9.416;2023-05-07T13:00:39;3.20;;;3.00;;
11267;SDS011;49397;47.474;9.416;2023-05-07T13:03:05;3.20;;;2.70;;
11267;SDS011;49397;47.474;9.416;2023-05-07T13:05:31;3.00;;;2.80;;
11267;SDS011;49397;47.474;9.416;2023-05-07T13:07:56;3.70;;;3.40;;
11267;SDS011;49397;47.474;9.416;2023-05-07T13:10:25;3.33;;;3.00;;
11267;SDS011;49397;47.474;9.416;2023-05-07T13:12:50;3.40;;;3.10;;
11267;SDS011;49397;47.474;9.416;2023-05-07T13:15:16;2.93;;;2.67;;
11267;SDS011;49397;47.474;9.416;2023-05-07T13:17:41;3.33;;;3.03;;
11267;SDS011;49397;47.474;9.416;2023-05-07T13:20:06;3.47;;;3.17;;
11267;SDS011;49397;47.474;9.416;2023-05-07T13:22:33;3.30;;;3.10;;
11267;SDS011;49397;47.474;9.416;2023-05-07T13:24:58;2.87;;;2.67;;
11267;SDS011;49397;47.474;9.416;2023-05-07T13:27:23;3.07;;;2.87;;
11267;SDS011;49397;47.474;9.416;2023-05-07T13:29:49;3.40;;;3.10;;
11267;SDS011;49397;47.474;9.416;2023-05-07T13:32:14;4.27;;;3.20;;
11267;SDS011;49397;47.474;9.416;2023-05-07T13:34:40;3.73;;;3.03;;
11267;SDS011;49397;47.474;9.416;2023-05-07T13:37:05;3.60;;;3.30;;
11267;SDS011;49397;47.474;9.416;2023-05-07T13:39:32;4.10;;;3.60;;
11267;SDS011;49397;47.474;9.416;2023-05-07T13:41:58;3.80;;;3.50;;
11267;SDS011;49397;47.474;9.416;2023-05-07T13:44:23;2.90;;;2.70;;
11267;SDS011;49397;47.474;9.416;2023-05-07T13:46:48;3.47;;;3.20;;
11267;SDS011;49397;47.474;9.416;2023-05-07T13:49:14;4.00;;;3.50;;
11267;SDS011;49397;47.474;9.416;2023-05-07T13:51:39;3.30;;;2.93;;
11267;SDS011;49397;47.474;9.416;2023-05-07T13:54:04;3.77;;;3.47;;
11267;SDS011;49397;47.474;9.416;2023-05-07T13:56:30;3.53;;;3.30;;
11267;SDS011;49397;47.474;9.416;2023-05-07T13:58:57;3.97;;;3.57;;
11267;SDS011;49397;47.474;9.416;2023-05-07T14:01:22;3.57;;;3.27;;
11267;SDS011;49397;47.474;9.416;2023-05-07T14:03:48;5.03;;;3.97;;
11267;SDS011;49397;47.474;9.416;2023-05-07T14:06:13;4.23;;;3.60;;
11267;SDS011;49397;47.474;9.416;2023-05-07T14:08:38;5.07;;;3.40;;
11267;SDS011;49397;47.474;9.416;2023-05-07T14:11:04;4.60;;;4.03;;
11267;SDS011;49397;47.474;9.416;2023-05-07T14:13:29;4.40;;;3.60;;
11267;SDS011;49397;47.474;9.416;2023-05-07T14:15:56;5.13;;;3.80;;
11267;SDS011;49397;47.474;9.416;2023-05-07T14:18:21;3.83;;;3.40;;
11267;SDS011;49397;47.474;9.416;2023-05-07T14:20:46;3.93;;;3.53;;
11267;SDS011;49397;47.474;9.416;2023-05-07T14:23:14;4.90;;;3.47;;
11267;SDS011;49397;47.474;9.416;2023-05-07T14:25:39;3.73;;;3.23;;
11267;SDS011;49397;47.474;9.416;2023-05-07T14:28:04;3.80;;;3.50;;
11267;SDS011;49397;47.474;9.416;2023-05-07T14:30:30;4.20;;;3.90;;
11267;SDS011;49397;47.474;9.416;2023-05-07T14:32:55;4.83;;;3.67;;
11267;SDS011;49397;47.474;9.416;2023-05-07T14:35:21;3.30;;;3.00;;
11267;SDS011;49397;47.474;9.416;2023-05-07T14:37:46;4.87;;;3.30;;
11267;SDS011;49397;47.474;9.416;2023-05-07T14:40:11;3.70;;;3.40;;
11267;SDS011;49397;47.474;9.416;2023-05-07T14:42:37;4.50;;;3.80;;
11267;SDS011;49397;47.474;9.416;2023-05-07T14:45:02;5.43;;;3.40;;
11267;SDS011;49397;47.474;9.416;2023-05-07T14:47:28;3.03;;;2.83;;
11267;SDS011;49397;47.474;9.416;2023-05-07T14:49:53;3.47;;;3.27;;
11267;SDS011;49397;47.474;9.416;2023-05-07T14:52:19;4.17;;;3.77;;
11267;SDS011;49397;47.474;9.416;2023-05-07T14:54:44;14.17;;;9.93;;
11267;SDS011;49397;47.474;9.416;2023-05-07T14:57:10;5.80;;;4.53;;
11267;SDS011;49397;47.474;9.416;2023-05-07T14:59:38;3.93;;;3.63;;
11267;SDS011;49397;47.474;9.416;2023-05-07T15:02:03;4.10;;;3.37;;
11267;SDS011;49397;47.474;9.416;2023-05-07T15:04:30;4.87;;;3.60;;